createdAt,value
2022-09-16T00:01:30.836Z,100.00
2022-09-16T00:04:00.618Z,100.00
2022-09-16T00:06:31.677Z,100.00
2022-09-16T00:09:26.786Z,100.00
2022-09-16T00:11:52.524Z,100.00
2022-09-16T00:14:23.565Z,100.00
2022-09-16T00:16:54.093Z,100.00
2022-09-16T00:19:50.527Z,100.00
2022-09-16T00:23:05.120Z,100.00
2022-09-16T00:26:40.215Z,100.00
2022-09-16T00:30:14.255Z,100.00
2022-09-16T00:33:01.388Z,100.00
2022-09-16T00:35:46.274Z,100.00
2022-09-16T00:38:59.411Z,100.00
2022-09-16T00:42:06.348Z,100.00
2022-09-16T00:44:59.708Z,100.00
2022-09-16T00:47:36.648Z,100.00
2022-09-16T00:50:13.910Z,100.00
2022-09-16T00:52:48.482Z,100.00
2022-09-16T00:59:38.354Z,100.00
2022-09-16T01:06:01.651Z,100.00
2022-09-16T01:08:51.146Z,100.00
2022-09-16T01:11:49.714Z,100.00
2022-09-16T01:14:18.708Z,100.00
2022-09-16T01:17:22.896Z,100.00
2022-09-16T01:20:56.289Z,100.00
2022-09-16T01:24:28.235Z,100.00
2022-09-16T01:27:21.148Z,100.00
2022-09-16T01:30:51.326Z,100.00
2022-09-16T01:34:25.996Z,100.00
2022-09-16T01:36:56.912Z,100.00
2022-09-16T01:40:10.076Z,100.00
2022-09-16T01:42:49.798Z,100.00
2022-09-16T01:45:27.919Z,100.00
2022-09-16T01:48:17.599Z,100.00
2022-09-16T01:50:55.358Z,100.00
2022-09-16T01:53:33.061Z,100.00
2022-09-16T01:56:09.829Z,100.00
2022-09-16T01:59:16.356Z,100.00
2022-09-16T02:01:48.807Z,100.00
2022-09-16T02:04:30.910Z,100.00
2022-09-16T02:07:42.584Z,100.00
2022-09-16T02:10:22.287Z,100.00
2022-09-16T02:13:47.063Z,100.00
2022-09-16T02:16:15.449Z,100.00
2022-09-16T02:18:49.955Z,100.00
2022-09-16T02:21:41.252Z,100.00
2022-09-16T02:24:53.527Z,100.00
2022-09-16T02:27:48.818Z,100.00
2022-09-16T02:30:25.734Z,100.00
2022-09-16T02:33:15.080Z,100.00
2022-09-16T02:37:08.328Z,100.00
2022-09-16T02:39:43.058Z,100.00
2022-09-16T02:42:18.196Z,100.00
2022-09-16T02:48:35.954Z,100.00
2022-09-16T02:51:41.176Z,100.00
2022-09-16T02:55:26.199Z,100.00
2022-09-16T03:00:56.236Z,100.00
2022-09-16T03:03:28.363Z,100.00
2022-09-16T03:06:24.774Z,100.00
2022-09-16T03:09:09.470Z,100.00
2022-09-16T03:12:24.313Z,100.00
2022-09-16T03:15:23.105Z,100.00
2022-09-16T03:18:41.149Z,100.00
2022-09-16T03:30:53.333Z,100.00
2022-09-16T03:33:32.574Z,100.00
2022-09-16T03:36:17.734Z,100.00
2022-09-16T03:42:23.986Z,100.00
2022-09-16T03:44:58.817Z,100.00
2022-09-16T03:47:42.972Z,100.00
2022-09-16T03:50:10.493Z,100.00
2022-09-16T03:55:41.938Z,100.00
2022-09-16T03:58:39.490Z,100.00
2022-09-16T04:01:06.669Z,100.00
2022-09-16T04:03:35.200Z,100.00
2022-09-16T04:06:02.533Z,100.00
2022-09-16T04:08:29.990Z,100.00
2022-09-16T04:10:59.109Z,100.00
2022-09-16T04:13:28.687Z,100.00
2022-09-16T04:15:59.522Z,100.00
2022-09-16T04:27:19.739Z,100.00
2022-09-16T04:29:57.366Z,100.00
2022-09-16T05:15:51.289Z,100.00
2022-09-16T05:31:56.523Z,100.00
2022-09-16T05:34:23.364Z,100.00
2022-09-16T05:36:50.981Z,100.00
2022-09-16T05:39:26.298Z,100.00
2022-09-16T05:41:59.351Z,100.00
2022-09-16T05:44:49.092Z,100.00
2022-09-16T05:47:20.240Z,100.00
2022-09-16T05:49:55.934Z,100.00
2022-09-16T05:52:23.308Z,100.00
2022-09-16T05:54:50.246Z,100.00
2022-09-16T05:57:17.597Z,100.00
2022-09-16T05:59:44.751Z,100.00
2022-09-16T06:02:12.263Z,100.00
2022-09-16T06:04:40.643Z,100.00
2022-09-16T06:07:12.395Z,100.00
2022-09-16T06:09:39.238Z,100.00
2022-09-16T06:12:06.714Z,100.00
2022-09-16T06:14:33.511Z,100.00
2022-09-16T06:17:00.362Z,100.00
2022-09-16T06:19:28.291Z,100.00
2022-09-16T06:21:56.539Z,100.00
2022-09-16T06:24:23.807Z,100.00
2022-09-16T06:26:51.378Z,100.00
2022-09-16T06:29:53.864Z,100.00
2022-09-16T06:32:30.613Z,100.00
2022-09-16T06:34:57.577Z,100.00
2022-09-16T06:37:25.747Z,100.00
2022-09-16T06:39:52.853Z,100.00
2022-09-16T06:42:19.810Z,100.00
2022-09-16T06:44:46.801Z,100.00
2022-09-16T06:47:13.900Z,100.00
2022-09-16T06:49:41.091Z,100.00
2022-09-16T06:52:11.679Z,100.00
2022-09-16T06:54:40.210Z,100.00
2022-09-16T06:57:11.926Z,100.00
2022-09-16T06:59:39.285Z,100.00
2022-09-16T07:02:06.300Z,100.00
2022-09-16T07:04:33.259Z,100.00
2022-09-16T07:07:15.284Z,100.00
2022-09-16T07:09:43.755Z,100.00
2022-09-16T07:12:10.840Z,100.00
2022-09-16T07:14:37.787Z,100.00
2022-09-16T07:17:05.056Z,100.00
2022-09-16T07:19:33.048Z,100.00
2022-09-16T07:22:01.393Z,100.00
2022-09-16T07:24:28.195Z,100.00
2022-09-16T07:26:56.362Z,100.00
2022-09-16T07:29:23.589Z,100.00
2022-09-16T07:31:50.375Z,100.00
2022-09-16T07:34:17.527Z,100.00
2022-09-16T07:36:48.209Z,100.00
2022-09-16T07:39:18.558Z,100.00
2022-09-16T07:41:47.118Z,100.00
2022-09-16T07:44:18.706Z,100.00
2022-09-16T07:46:45.792Z,100.00
2022-09-16T07:49:14.948Z,100.00
2022-09-16T07:51:47.629Z,100.00
2022-09-16T07:54:19.683Z,100.00
2022-09-16T07:56:46.543Z,100.00
2022-09-16T07:59:32.539Z,100.00
2022-09-16T08:02:12.637Z,100.00
2022-09-16T08:04:39.669Z,100.00
2022-09-16T08:07:06.997Z,100.00
2022-09-16T08:09:39.683Z,100.00
2022-09-16T08:12:14.187Z,100.00
2022-09-16T08:14:42.429Z,100.00
2022-09-16T08:17:11.216Z,100.00
2022-09-16T08:19:38.408Z,100.00
2022-09-16T08:22:05.412Z,100.00
2022-09-16T08:24:32.234Z,100.00
2022-09-16T08:27:01.247Z,100.00
2022-09-16T08:29:30.684Z,100.00
2022-09-16T08:32:00.239Z,100.00
2022-09-16T08:34:27.314Z,100.00
2022-09-16T08:36:55.807Z,100.00
2022-09-16T08:39:27.354Z,100.00
2022-09-16T08:42:29.492Z,100.00
2022-09-16T08:45:10.340Z,100.00
2022-09-16T08:48:01.736Z,100.00
2022-09-16T08:50:34.210Z,100.00
2022-09-16T08:53:10.072Z,100.00
2022-09-16T08:55:55.668Z,100.00
2022-09-16T08:58:31.084Z,100.00
2022-09-16T09:01:12.280Z,100.00
2022-09-16T09:03:43.664Z,98.92
2022-09-16T09:06:27.490Z,96.45
2022-09-16T09:09:24.111Z,95.98
2022-09-16T09:12:05.036Z,96.07
2022-09-16T09:14:55.904Z,97.45
2022-09-16T09:17:48.682Z,98.20
2022-09-16T09:20:35.164Z,97.43
2022-09-16T09:23:21.976Z,98.66
2022-09-16T09:25:58.915Z,99.34
2022-09-16T09:29:06.196Z,98.20
2022-09-16T09:31:47.884Z,97.28
2022-09-16T09:34:41.611Z,95.64
2022-09-16T09:37:38.124Z,93.88
2022-09-16T09:40:15.792Z,93.62
2022-09-16T09:42:52.538Z,93.91
2022-09-16T09:45:30.501Z,93.40
2022-09-16T09:48:16.537Z,93.80
2022-09-16T09:50:48.748Z,92.83
2022-09-16T09:53:25.130Z,91.81
2022-09-16T09:56:04.464Z,91.07
2022-09-16T09:58:40.775Z,93.05
2022-09-16T10:01:10.229Z,91.68
2022-09-16T10:03:37.519Z,91.30
2022-09-16T10:06:05.352Z,91.67
2022-09-16T10:08:44.862Z,91.90
2022-09-16T10:11:21.093Z,92.01
2022-09-16T10:13:50.328Z,93.00
2022-09-16T10:16:26.383Z,93.51
2022-09-16T10:19:03.152Z,93.46
2022-09-16T10:21:42.074Z,93.19
2022-09-16T10:24:31.894Z,93.44
2022-09-16T10:27:01.735Z,94.51
2022-09-16T10:29:32.226Z,94.09
2022-09-16T10:32:13.419Z,93.76
2022-09-16T10:34:51.821Z,94.97
2022-09-16T10:37:37.512Z,93.10
2022-09-16T10:40:51.344Z,91.97
2022-09-16T10:43:35.831Z,91.75
2022-09-16T10:49:39.923Z,91.44
2022-09-16T10:52:09.652Z,92.12
2022-09-16T10:54:36.959Z,93.56
2022-09-16T10:57:04.190Z,94.19
2022-09-16T10:59:32.622Z,93.49
2022-09-16T11:02:18.397Z,94.66
2022-09-16T11:05:00.893Z,93.34
2022-09-16T11:07:45.396Z,93.20
2022-09-16T11:10:26.212Z,92.32
2022-09-16T11:13:23.047Z,91.65
2022-09-16T11:16:19.833Z,90.87
2022-09-16T11:19:02.009Z,89.60
2022-09-16T11:22:04.458Z,87.91
2022-09-16T11:25:06.940Z,86.52
2022-09-16T11:27:53.575Z,87.76
2022-09-16T11:30:22.523Z,82.61
2022-09-16T11:33:22.063Z,77.67
2022-09-16T11:36:37.755Z,73.05
2022-09-16T11:39:39.823Z,70.29
2022-09-16T12:31:35.035Z,69.71
2022-09-16T12:34:11.011Z,72.19
2022-09-16T12:36:43.910Z,70.31
2022-09-16T12:39:12.814Z,68.17
2022-09-16T12:42:09.103Z,70.49
2022-09-16T12:45:08.156Z,69.94
2022-09-16T12:48:06.811Z,69.39
2022-09-16T12:51:00.232Z,67.68
2022-09-16T12:54:21.935Z,64.90
2022-09-16T12:57:20.837Z,64.68
2022-09-16T13:00:15.592Z,66.88
2022-09-16T13:02:50.722Z,63.92
2022-09-16T13:05:33.043Z,64.74
2022-09-16T13:08:06.993Z,66.29
2022-09-16T13:11:00.683Z,65.07
2022-09-16T13:13:47.942Z,63.62
2022-09-16T13:16:29.857Z,60.69
2022-09-16T13:19:39.151Z,63.49
2022-09-16T13:22:23.483Z,63.74
2022-09-16T13:24:57.951Z,63.56
2022-09-16T13:27:31.565Z,63.88
2022-09-16T13:30:42.977Z,65.11
2022-09-16T13:33:29.390Z,68.38
2022-09-16T13:36:28.617Z,67.75
2022-09-16T13:39:04.663Z,65.94
2022-09-16T13:41:36.616Z,67.41
2022-09-16T13:44:27.325Z,67.13
2022-09-16T13:46:54.428Z,68.33
2022-09-16T13:49:26.735Z,68.57
2022-09-16T13:51:54.504Z,68.26
2022-09-16T13:54:37.148Z,67.96
2022-09-16T13:57:28.642Z,65.98
2022-09-16T14:00:18.669Z,63.40
2022-09-16T14:03:06.431Z,62.63
2022-09-16T14:06:16.775Z,59.85
2022-09-16T14:08:58.139Z,61.35
2022-09-16T14:11:40.182Z,60.87
2022-09-16T14:14:36.192Z,61.27
2022-09-16T14:17:13.185Z,63.05
2022-09-16T14:19:42.787Z,62.89
2022-09-16T14:22:17.993Z,62.00
2022-09-16T14:24:48.389Z,62.76
2022-09-16T14:27:28.068Z,61.77
2022-09-16T14:29:58.393Z,61.19
2022-09-16T14:32:30.268Z,61.68
2022-09-16T14:35:04.176Z,60.32
2022-09-16T14:37:34.183Z,60.56
2022-09-16T14:40:10.171Z,62.18
2022-09-16T14:42:39.414Z,61.10
2022-09-16T14:45:07.159Z,61.21
2022-09-16T14:47:54.076Z,63.41
2022-09-16T14:50:26.043Z,62.89
2022-09-16T14:52:57.659Z,65.16
2022-09-16T14:55:29.010Z,64.73
2022-09-16T14:57:56.656Z,67.59
2022-09-16T15:00:31.470Z,69.32
2022-09-16T15:03:05.145Z,69.03
2022-09-16T15:05:36.129Z,68.20
2022-09-16T15:08:16.347Z,69.02
2022-09-16T15:10:52.437Z,68.91
2022-09-16T15:13:24.532Z,67.20
2022-09-16T15:15:56.868Z,68.49
2022-09-16T15:18:27.614Z,69.34
2022-09-16T15:21:05.879Z,68.57
2022-09-16T15:23:37.225Z,70.51
2022-09-16T15:26:16.620Z,69.87
2022-09-16T15:28:53.811Z,70.84
2022-09-16T15:31:36.445Z,71.41
2022-09-16T15:34:20.390Z,69.95
2022-09-16T15:36:50.462Z,68.12
2022-09-16T15:39:25.893Z,66.49
2022-09-16T15:42:20.289Z,67.07
2022-09-16T15:44:50.561Z,66.63
2022-09-16T15:47:22.919Z,68.46
2022-09-16T15:53:13.522Z,67.01
2022-09-16T15:55:55.300Z,70.25
2022-09-16T15:58:36.637Z,70.91
2022-09-16T16:01:13.821Z,71.66
2022-09-16T16:03:54.449Z,73.81
2022-09-16T16:06:49.116Z,74.73
2022-09-16T16:09:35.783Z,74.80
2022-09-16T16:12:08.006Z,75.01
2022-09-16T16:14:36.840Z,74.41
2022-09-16T16:17:13.098Z,75.23
2022-09-16T16:19:41.258Z,74.18
2022-09-16T16:22:08.701Z,73.93
2022-09-16T16:24:37.726Z,72.90
2022-09-16T16:27:06.369Z,73.52
2022-09-16T16:29:33.138Z,73.83
2022-09-16T16:32:04.894Z,73.84
2022-09-16T16:34:34.180Z,75.02
2022-09-16T16:37:01.514Z,73.51
2022-09-16T16:41:59.372Z,76.53
2022-09-16T16:44:28.497Z,75.62
2022-09-16T16:46:56.124Z,74.93
2022-09-16T16:49:24.210Z,75.86
2022-09-16T16:51:53.079Z,75.59
2022-09-16T16:54:20.961Z,74.62
2022-09-16T16:56:48.641Z,73.08
2022-09-16T16:59:26.949Z,76.71
2022-09-16T17:01:57.817Z,80.60
2022-09-16T17:04:26.549Z,86.08
2022-09-16T17:07:24.598Z,89.17
2022-09-16T17:09:51.096Z,92.85
2022-09-16T17:12:18.066Z,93.08
2022-09-16T17:18:52.761Z,93.48
2022-09-16T17:21:24.985Z,95.74
2022-09-16T17:23:52.861Z,94.55
2022-09-16T17:26:24.514Z,95.37
2022-09-16T17:29:50.717Z,95.30
2022-09-16T17:33:22.701Z,96.87
2022-09-16T17:36:05.233Z,95.88
2022-09-16T17:38:34.830Z,96.38
2022-09-16T17:41:04.904Z,96.38
2022-09-16T17:46:42.443Z,95.78
2022-09-16T17:49:17.290Z,97.52
2022-09-16T17:51:44.687Z,100.00
2022-09-16T17:54:25.025Z,100.00
2022-09-16T18:00:22.710Z,100.00
2022-09-16T18:02:51.089Z,100.00
2022-09-16T18:05:19.815Z,100.00
2022-09-16T18:07:49.708Z,100.00
2022-09-16T18:11:22.375Z,100.00
2022-09-16T18:13:58.453Z,100.00
2022-09-16T18:21:53.057Z,100.00
2022-09-16T19:16:02.818Z,100.00
2022-09-16T20:01:19.561Z,100.00
2022-09-16T20:04:27.562Z,100.00
2022-09-16T20:06:54.886Z,100.00
2022-09-16T20:09:23.479Z,100.00
2022-09-16T20:11:50.631Z,100.00
2022-09-16T20:14:20.234Z,100.00
2022-09-16T20:16:50.757Z,100.00
2022-09-16T20:19:19.763Z,100.00
2022-09-16T20:21:46.743Z,100.00
2022-09-16T20:24:18.066Z,100.00
2022-09-16T20:26:46.022Z,100.00
2022-09-16T20:29:13.162Z,100.00
2022-09-16T20:31:41.175Z,100.00
2022-09-16T20:34:11.691Z,100.00
2022-09-16T20:36:39.768Z,100.00
2022-09-16T20:39:09.381Z,100.00
2022-09-16T20:41:40.155Z,100.00
2022-09-16T20:44:07.828Z,100.00
2022-09-16T20:46:37.368Z,100.00
2022-09-16T20:49:07.280Z,100.00
2022-09-16T20:51:37.349Z,100.00
2022-09-16T20:54:08.819Z,100.00
2022-09-16T20:56:39.374Z,100.00
2022-09-16T20:59:08.303Z,100.00
2022-09-16T21:01:37.499Z,100.00
2022-09-16T21:04:06.990Z,100.00
2022-09-16T21:06:36.688Z,100.00
2022-09-16T21:09:06.879Z,100.00
2022-09-16T21:11:34.582Z,100.00
2022-09-16T21:14:05.236Z,100.00
2022-09-16T21:16:33.209Z,100.00
2022-09-16T21:19:02.645Z,100.00
2022-09-16T21:21:31.038Z,100.00
2022-09-16T21:23:59.930Z,100.00
2022-09-16T21:26:29.791Z,100.00
2022-09-16T21:28:59.867Z,100.00
2022-09-16T21:31:29.084Z,100.00
2022-09-16T21:33:55.943Z,100.00
2022-09-16T21:36:25.639Z,100.00
2022-09-16T21:38:57.710Z,100.00
2022-09-16T21:41:29.059Z,100.00
2022-09-16T21:43:57.973Z,100.00
2022-09-16T21:46:30.468Z,100.00
2022-09-16T21:49:00.641Z,100.00
2022-09-16T21:51:29.825Z,100.00
2022-09-16T21:53:56.748Z,100.00
2022-09-16T21:56:23.632Z,100.00
2022-09-16T21:58:55.314Z,100.00
2022-09-16T22:01:25.312Z,100.00
2022-09-16T22:03:55.607Z,100.00
2022-09-16T22:06:24.107Z,100.00
2022-09-16T22:08:52.737Z,100.00
2022-09-16T22:11:22.762Z,100.00
2022-09-16T22:13:50.084Z,100.00
2022-09-16T22:16:23.386Z,100.00
2022-09-16T22:19:02.302Z,100.00
2022-09-16T22:21:31.960Z,100.00
2022-09-16T22:23:59.930Z,100.00
2022-09-16T22:26:28.852Z,100.00
2022-09-16T22:28:56.863Z,100.00
2022-09-16T22:31:27.722Z,100.00
2022-09-16T22:33:57.982Z,100.00
2022-09-16T22:36:28.117Z,100.00
2022-09-16T22:38:58.903Z,100.00
2022-09-16T22:41:57.203Z,100.00
2022-09-16T22:44:24.440Z,100.00
2022-09-16T22:46:52.734Z,100.00
2022-09-16T22:49:19.612Z,100.00
2022-09-16T22:51:46.585Z,100.00
2022-09-16T22:54:14.783Z,100.00
2022-09-16T22:56:43.118Z,100.00
2022-09-16T22:59:17.178Z,100.00
2022-09-16T23:01:44.580Z,100.00
2022-09-16T23:04:13.390Z,100.00
2022-09-16T23:06:40.427Z,100.00
2022-09-16T23:09:08.595Z,100.00
2022-09-16T23:11:36.161Z,100.00
2022-09-16T23:14:04.066Z,100.00
2022-09-16T23:16:34.469Z,100.00
2022-09-16T23:19:05.212Z,100.00
2022-09-16T23:21:33.601Z,100.00
2022-09-16T23:24:03.948Z,100.00
2022-09-16T23:26:33.664Z,100.00
2022-09-16T23:29:04.797Z,100.00
2022-09-16T23:31:36.627Z,100.00
2022-09-16T23:34:03.678Z,100.00
2022-09-16T23:36:30.678Z,100.00
2022-09-16T23:38:58.922Z,100.00
2022-09-16T23:41:26.065Z,100.00
2022-09-16T23:43:54.025Z,100.00
2022-09-16T23:46:24.334Z,100.00
2022-09-16T23:48:51.616Z,100.00
2022-09-16T23:51:24.602Z,100.00
2022-09-16T23:53:55.134Z,100.00
2022-09-16T23:56:23.454Z,100.00
2022-09-16T23:58:51.237Z,100.00
